Time;durP1;ratioP1;P1;durP2;ratioP2;P2;SDS_P1;SDS_P2;PMS_P1;PMS_P2;Temp;Humidity;BMP_temperature;BMP_pressure;BME280_temperature;BME280_humidity;BME280_pressure;Samples;Min_cycle;Max_cycle;Signal;HPM_P1;HPM_P2
2023/03/12 00:02:01;;;;;;;0.95;0.35;;;18.50;54.00;;;;;;5051147;28;20056;-63
2023/03/12 00:04:28;;;;;;;2.08;0.28;;;18.50;53.90;;;;;;5050961;28;20153;-63
2023/03/12 00:06:55;;;;;;;0.82;0.55;;;18.60;53.80;;;;;;5032828;28;20088;-63
2023/03/12 00:09:24;;;;;;;1.08;0.57;;;18.60;53.80;;;;;;5050332;28;20134;-63
2023/03/12 00:11:51;;;;;;;1.23;0.50;;;18.60;53.80;;;;;;5032473;28;20048;-63
2023/03/12 00:14:17;;;;;;;0.63;0.15;;;18.50;53.80;;;;;;5050752;28;20075;-63
2023/03/12 00:16:44;;;;;;;0.95;0.60;;;18.60;53.80;;;;;;5053974;28;20044;-63
2023/03/12 00:19:13;;;;;;;0.73;0.28;;;18.60;53.70;;;;;;5052542;28;20424;-63
2023/03/12 00:21:40;;;;;;;1.05;0.13;;;18.60;53.70;;;;;;5070603;28;20066;-63
2023/03/12 00:24:08;;;;;;;1.27;0.55;;;18.70;53.60;;;;;;5070542;28;20055;-63
2023/03/12 00:26:36;;;;;;;1.00;0.52;;;18.70;53.50;;;;;;5052401;28;20048;-63
2023/03/12 00:29:03;;;;;;;1.00;0.30;;;18.80;53.50;;;;;;5070778;28;20056;-63
2023/03/12 00:31:32;;;;;;;1.00;0.50;;;18.80;53.40;;;;;;5070336;28;20044;-63
2023/03/12 00:34:00;;;;;;;0.60;0.08;;;18.90;53.50;;;;;;5052371;28;20052;-63
2023/03/12 00:36:29;;;;;;;0.60;0.13;;;18.80;53.40;;;;;;5070583;28;20040;-63
2023/03/12 00:38:57;;;;;;;0.63;0.20;;;18.80;53.30;;;;;;5070124;28;20059;-63
2023/03/12 00:41:26;;;;;;;0.60;0.10;;;18.80;53.30;;;;;;5070437;28;20040;-63
2023/03/12 00:43:54;;;;;;;0.73;0.32;;;18.80;53.40;;;;;;5070226;28;20052;-63
2023/03/12 00:46:21;;;;;;;1.10;0.77;;;18.80;53.60;;;;;;5052642;28;20497;-62
2023/03/12 00:48:48;;;;;;;1.10;0.65;;;18.70;53.60;;;;;;5050230;28;20049;-63
2023/03/12 00:51:16;;;;;;;0.65;0.20;;;18.70;53.60;;;;;;5032662;28;20052;-63
2023/03/12 00:53:43;;;;;;;0.88;0.22;;;18.60;53.60;;;;;;5032150;28;20045;-63
2023/03/12 00:56:10;;;;;;;1.00;0.35;;;18.60;53.70;;;;;;5049990;28;20124;-63
2023/03/12 00:58:37;;;;;;;0.75;0.40;;;18.50;53.70;;;;;;5032040;28;20056;-63
2023/03/12 01:01:05;;;;;;;0.95;0.40;;;18.50;53.80;;;;;;5049944;28;20421;-63
2023/03/12 01:03:33;;;;;;;0.93;0.28;;;18.50;54.50;;;;;;5032254;28;20497;-63
2023/03/12 01:06:00;;;;;;;0.98;0.55;;;18.40;53.90;;;;;;5050016;28;20049;-63
2023/03/12 01:08:27;;;;;;;1.35;0.65;;;18.40;53.90;;;;;;5031768;28;20087;-63
2023/03/12 01:10:54;;;;;;;1.17;0.25;;;18.40;54.00;;;;;;5050034;28;20363;-63
2023/03/12 01:13:21;;;;;;;1.13;0.52;;;18.30;54.00;;;;;;5032137;28;20053;-63
2023/03/12 01:15:48;;;;;;;1.40;0.55;;;18.30;54.00;;;;;;5032019;28;20056;-63
2023/03/12 01:18:16;;;;;;;0.77;0.32;;;18.20;54.10;;;;;;5049848;28;20068;-63
2023/03/12 01:20:44;;;;;;;0.98;0.10;;;18.20;54.10;;;;;;5052835;28;20197;-63
2023/03/12 01:23:11;;;;;;;0.88;0.20;;;18.10;54.10;;;;;;5035630;28;20056;-63
2023/03/12 01:25:38;;;;;;;1.10;0.40;;;18.10;54.20;;;;;;5036080;28;20057;-63
2023/03/12 01:28:05;;;;;;;0.40;0.13;;;18.00;54.20;;;;;;5054101;28;20049;-63
2023/03/12 01:30:32;;;;;;;0.88;0.17;;;18.00;54.20;;;;;;5036243;28;20565;-63
2023/03/12 01:32:59;;;;;;;1.10;0.50;;;18.00;54.30;;;;;;5053734;28;20052;-63
2023/03/12 01:35:27;;;;;;;0.95;0.45;;;18.00;54.30;;;;;;5035832;28;20057;-63
2023/03/12 01:37:55;;;;;;;0.70;0.45;;;18.00;54.30;;;;;;5053443;28;20053;-63
2023/03/12 01:40:27;;;;;;;1.23;0.13;;;18.10;54.40;;;;;;5035526;28;20049;-63
2023/03/12 01:42:55;;;;;;;0.77;0.13;;;18.10;54.40;;;;;;5053740;28;20508;-63
2023/03/12 01:45:58;;;;;;;0.90;0.60;;;18.10;54.30;;;;;;5034970;28;20056;-63
2023/03/12 01:48:27;;;;;;;1.33;0.22;;;18.10;54.20;;;;;;5053339;28;20059;-63
2023/03/12 01:50:55;;;;;;;1.00;0.40;;;18.10;54.20;;;;;;5053229;28;20052;-63
2023/03/12 01:53:22;;;;;;;1.77;0.50;;;18.30;54.10;;;;;;5035666;28;20057;-63
2023/03/12 01:55:50;;;;;;;0.50;0.13;;;18.30;54.00;;;;;;5035257;28;20355;-63
2023/03/12 01:58:17;;;;;;;1.13;0.50;;;18.30;54.00;;;;;;5034992;28;20143;-63
2023/03/12 02:00:45;;;;;;;0.77;0.40;;;18.40;53.90;;;;;;5035259;28;20053;-63
2023/03/12 02:03:13;;;;;;;1.02;0.50;;;18.40;53.90;;;;;;5035405;28;20126;-63
2023/03/12 02:05:46;;;;;;;0.70;0.28;;;18.40;53.90;;;;;;5053096;28;20456;-63
2023/03/12 02:08:18;;;;;;;0.95;0.57;;;18.40;53.90;;;;;;5035236;28;20051;-63
2023/03/12 02:10:45;;;;;;;0.55;0.13;;;18.40;53.90;;;;;;5035099;28;20512;-63
2023/03/12 02:13:12;;;;;;;1.13;0.15;;;18.50;53.90;;;;;;5053108;28;20056;-63
2023/03/12 02:15:40;;;;;;;0.88;0.22;;;18.40;54.50;;;;;;5052628;28;20057;-63
2023/03/12 02:18:09;;;;;;;0.73;0.40;;;18.60;53.70;;;;;;5035383;28;20401;-63
2023/03/12 02:20:42;;;;;;;1.48;0.57;;;18.60;53.70;;;;;;5052655;28;20080;-63
2023/03/12 02:23:16;;;;;;;0.90;0.10;;;18.70;53.60;;;;;;5052458;28;20437;-63
2023/03/12 02:25:47;;;;;;;0.98;0.22;;;18.70;53.50;;;;;;5052665;28;20068;-63
2023/03/12 02:28:18;;;;;;;0.70;0.28;;;18.80;53.40;;;;;;5052936;28;20077;-63
2023/03/12 02:30:48;;;;;;;1.10;0.13;;;18.80;53.20;;;;;;5051608;28;20049;-63
2023/03/12 02:33:16;;;;;;;0.55;0.17;;;18.90;53.30;;;;;;5034839;28;20092;-63
2023/03/12 02:35:45;;;;;;;0.70;0.40;;;18.90;53.20;;;;;;5052313;28;20481;-63
2023/03/12 02:38:37;;;;;;;1.00;0.30;;;18.90;53.10;;;;;;5052620;28;20052;-63
2023/03/12 02:41:14;;;;;;;0.98;0.60;;;18.90;53.10;;;;;;5052777;28;20075;-63
2023/03/12 02:43:44;;;;;;;0.90;0.20;;;18.90;53.10;;;;;;5034661;28;20052;-63
2023/03/12 02:46:11;;;;;;;;;;;18.90;53.20;;;;;;5052333;28;20460;-63
2023/03/12 02:48:38;;;;;;;0.90;0.55;;;18.90;53.10;;;;;;5052204;28;19931;-63
2023/03/12 02:51:05;;;;;;;0.80;0.40;;;18.80;53.20;;;;;;5034324;28;20098;-63
2023/03/12 02:53:32;;;;;;;0.98;0.32;;;18.80;53.30;;;;;;5052359;28;20401;-63
2023/03/12 02:55:59;;;;;;;1.00;0.43;;;18.70;53.30;;;;;;5034324;28;20064;-63
2023/03/12 02:58:27;;;;;;;1.05;0.40;;;18.70;53.50;;;;;;5052343;28;20052;-63
2023/03/12 03:00:54;;;;;;;0.90;0.32;;;18.60;53.50;;;;;;5033915;28;20417;-63
2023/03/12 03:03:21;;;;;;;1.25;0.55;;;18.60;53.60;;;;;;5052182;28;20107;-63
2023/03/12 03:05:48;;;;;;;0.80;0.40;;;18.50;53.60;;;;;;5034184;28;20057;-63
2023/03/12 03:08:15;;;;;;;0.98;0.32;;;18.50;53.70;;;;;;5051935;28;20060;-63
2023/03/12 03:10:42;;;;;;;0.80;0.63;;;18.40;53.70;;;;;;5051797;28;20053;-63
2023/03/12 03:13:09;;;;;;;0.85;0.13;;;18.40;53.70;;;;;;5051904;28;20132;-63
2023/03/12 03:15:38;;;;;;;0.65;0.15;;;18.40;53.80;;;;;;5033554;28;20064;-63
2023/03/12 03:18:06;;;;;;;1.38;0.60;;;18.30;53.80;;;;;;5033824;28;20087;-63
2023/03/12 03:20:33;;;;;;;1.67;0.60;;;18.30;53.90;;;;;;5051527;28;20057;-63
2023/03/12 03:23:00;;;;;;;0.82;0.17;;;18.20;53.90;;;;;;5051792;28;20048;-63
2023/03/12 03:25:27;;;;;;;0.70;0.32;;;18.20;54.00;;;;;;5051734;28;20049;-63
2023/03/12 03:27:54;;;;;;;1.00;0.50;;;18.20;54.00;;;;;;5033257;28;20049;-63
2023/03/12 03:30:21;;;;;;;0.70;0.30;;;18.10;54.10;;;;;;5051771;28;20049;-63
2023/03/12 03:32:50;;;;;;;0.55;0.10;;;18.10;54.10;;;;;;5033336;28;20063;-63
2023/03/12 03:35:17;;;;;;;1.08;0.50;;;18.00;54.10;;;;;;5051538;28;20059;-63
2023/03/12 03:37:44;;;;;;;0.80;0.50;;;18.10;54.20;;;;;;5033470;28;20049;-63
2023/03/12 03:40:12;;;;;;;1.00;0.25;;;18.00;54.20;;;;;;5051307;28;20060;-63
2023/03/12 03:42:40;;;;;;;0.50;0.10;;;18.00;54.20;;;;;;5033578;28;20500;-63
2023/03/12 03:45:09;;;;;;;0.50;0.10;;;18.10;54.20;;;;;;5050815;28;20407;-63
2023/03/12 03:47:36;;;;;;;0.77;0.50;;;18.10;54.20;;;;;;5051269;28;20081;-63
2023/03/12 03:50:06;;;;;;;0.68;0.13;;;18.00;54.10;;;;;;5033581;28;20082;-63
2023/03/12 03:52:33;;;;;;;0.80;0.20;;;18.10;54.20;;;;;;5051073;28;20041;-63
2023/03/12 03:55:00;;;;;;;0.90;0.13;;;18.10;54.20;;;;;;5050889;28;20049;-63
2023/03/12 03:57:28;;;;;;;0.80;0.22;;;18.10;54.20;;;;;;5033336;28;20387;-63
2023/03/12 03:59:57;;;;;;;0.85;0.40;;;18.10;54.20;;;;;;5050951;28;20053;-63
2023/03/12 04:02:25;;;;;;;1.00;0.30;;;18.20;54.10;;;;;;5050789;28;20131;-63
2023/03/12 04:04:52;;;;;;;0.45;0.13;;;18.20;54.00;;;;;;5033196;28;20603;-63
2023/03/12 04:07:21;;;;;;;0.80;0.40;;;18.20;53.90;;;;;;5032842;28;20052;-63
2023/03/12 04:09:48;;;;;;;0.68;0.13;;;18.30;53.90;;;;;;5032962;28;20402;-63
2023/03/12 04:12:15;;;;;;;1.02;0.57;;;18.40;53.80;;;;;;5050765;28;20048;-63
2023/03/12 04:14:42;;;;;;;0.70;0.45;;;18.40;53.70;;;;;;5050610;28;20048;-63
2023/03/12 04:17:10;;;;;;;0.80;0.47;;;18.50;53.60;;;;;;5032608;28;20064;-63
2023/03/12 04:19:37;;;;;;;0.82;0.68;;;18.60;53.50;;;;;;5050605;28;20053;-63
2023/03/12 04:22:04;;;;;;;0.73;0.47;;;18.70;53.50;;;;;;5050125;28;20089;-63
2023/03/12 04:24:32;;;;;;;0.90;0.35;;;18.70;53.30;;;;;;5032539;28;20075;-63
2023/03/12 04:26:59;;;;;;;0.38;0.10;;;18.80;53.20;;;;;;5032342;28;20059;-63
2023/03/12 04:29:27;;;;;;;0.50;0.13;;;18.80;53.10;;;;;;5032667;28;20413;-63
2023/03/12 04:31:54;;;;;;;0.57;0.22;;;18.90;53.00;;;;;;5050857;28;20060;-63
2023/03/12 04:34:22;;;;;;;0.82;0.20;;;18.90;52.90;;;;;;5032417;28;20053;-63
2023/03/12 04:36:48;;;;;;;1.00;0.55;;;18.90;52.90;;;;;;5050551;28;20053;-63
2023/03/12 04:39:18;;;;;;;0.50;0.03;;;18.90;52.90;;;;;;5032369;28;20049;-63
2023/03/12 04:41:46;;;;;;;0.68;0.13;;;18.90;52.90;;;;;;5032788;28;20146;-63
2023/03/12 04:44:14;;;;;;;0.50;0.15;;;18.90;52.90;;;;;;5050089;28;20512;-63
2023/03/12 04:46:41;;;;;;;0.63;0.13;;;18.80;53.00;;;;;;5032312;28;20482;-63
2023/03/12 04:49:08;;;;;;;0.85;0.50;;;18.80;53.00;;;;;;5032111;28;20049;-63
2023/03/12 04:51:35;;;;;;;0.88;0.22;;;18.80;53.10;;;;;;5068210;28;20060;-63
2023/03/12 04:54:03;;;;;;;0.95;0.80;;;18.70;53.10;;;;;;5069796;28;20053;-63
2023/03/12 04:56:30;;;;;;;0.60;0.25;;;18.70;53.20;;;;;;5070277;28;20139;-63
2023/03/12 04:58:58;;;;;;;0.80;0.65;;;18.60;53.30;;;;;;5052079;28;20051;-63
2023/03/12 05:01:27;;;;;;;1.13;0.45;;;18.60;53.40;;;;;;5052145;28;20060;-63
2023/03/12 05:03:54;;;;;;;0.47;0.13;;;18.50;53.40;;;;;;5070073;28;20049;-63
2023/03/12 05:06:22;;;;;;;0.77;0.40;;;18.50;53.50;;;;;;5070184;28;20052;-63
2023/03/12 05:08:49;;;;;;;1.25;0.40;;;18.50;53.50;;;;;;5069980;28;20045;-63
2023/03/12 05:11:17;;;;;;;1.55;0.50;;;18.40;53.50;;;;;;5069904;28;20056;-63
2023/03/12 05:13:44;;;;;;;0.63;0.40;;;18.40;53.50;;;;;;5069901;28;20065;-63
2023/03/12 05:16:13;;;;;;;1.23;0.65;;;18.30;53.50;;;;;;5069834;28;20053;-63
2023/03/12 05:18:40;;;;;;;0.57;0.13;;;18.30;53.70;;;;;;5069882;28;20049;-63
2023/03/12 05:21:09;;;;;;;0.47;0.15;;;18.20;53.70;;;;;;5051772;28;20402;-63
2023/03/12 05:23:38;;;;;;;0.70;0.43;;;18.20;53.80;;;;;;5069675;28;20055;-63
2023/03/12 05:26:05;;;;;;;0.82;0.60;;;18.20;53.90;;;;;;5069998;28;20055;-63
2023/03/12 05:28:32;;;;;;;0.82;0.32;;;18.20;53.80;;;;;;5051759;28;20048;-63
2023/03/12 05:31:01;;;;;;;1.08;0.30;;;18.10;53.90;;;;;;5069680;28;20059;-63
2023/03/12 05:33:29;;;;;;;0.90;0.45;;;18.10;54.00;;;;;;5051917;28;20053;-63
2023/03/12 05:35:56;;;;;;;0.55;0.10;;;18.00;53.90;;;;;;5069933;28;20381;-63
2023/03/12 05:38:23;;;;;;;1.30;0.30;;;18.10;54.00;;;;;;5051579;28;20060;-63
2023/03/12 05:40:54;;;;;;;0.80;0.30;;;18.00;54.00;;;;;;5069693;28;20083;-63
2023/03/12 05:43:21;;;;;;;1.00;0.22;;;18.10;54.00;;;;;;5069369;28;20504;-63
2023/03/12 05:45:49;;;;;;;0.90;0.25;;;18.00;53.90;;;;;;5053202;28;20409;-63
2023/03/12 05:48:16;;;;;;;0.70;0.30;;;18.00;53.90;;;;;;5031638;28;20049;-63
2023/03/12 05:50:45;;;;;;;0.98;0.13;;;18.00;53.90;;;;;;5049648;28;20068;-63
2023/03/12 05:53:12;;;;;;;0.57;0.13;;;18.00;54.00;;;;;;5049671;28;20132;-63
2023/03/12 05:55:40;;;;;;;0.40;0.05;;;18.00;54.00;;;;;;5031673;28;20520;-63
2023/03/12 05:58:07;;;;;;;1.00;0.47;;;18.00;54.00;;;;;;5049625;28;20057;-63
2023/03/12 06:00:36;;;;;;;0.70;0.30;;;18.10;54.00;;;;;;5049389;28;20068;-63
2023/03/12 06:03:04;;;;;;;0.82;0.30;;;18.20;53.90;;;;;;5049359;28;20075;-63
2023/03/12 06:05:31;;;;;;;1.00;0.20;;;18.20;53.90;;;;;;5032617;28;20516;-63
2023/03/12 06:08:00;;;;;;;0.65;0.22;;;18.20;53.70;;;;;;5053039;28;20052;-63
2023/03/12 06:10:27;;;;;;;0.80;0.43;;;18.30;53.70;;;;;;5052722;28;20053;-63
2023/03/12 06:12:54;;;;;;;0.95;0.17;;;18.30;53.60;;;;;;5034973;28;20052;-63
2023/03/12 06:15:21;;;;;;;0.77;0.22;;;18.40;53.50;;;;;;5052880;28;20048;-63
2023/03/12 06:17:48;;;;;;;0.90;0.32;;;18.50;53.40;;;;;;5052918;28;20059;-63
2023/03/12 06:20:15;;;;;;;0.77;0.22;;;18.60;53.30;;;;;;5052675;28;20076;-63
2023/03/12 06:22:42;;;;;;;0.68;0.10;;;18.70;53.20;;;;;;5052915;28;20119;-63
2023/03/12 06:25:11;;;;;;;0.63;0.32;;;18.70;53.10;;;;;;5052876;28;20060;-63
2023/03/12 06:27:39;;;;;;;0.70;0.30;;;18.80;53.00;;;;;;5052638;28;20053;-63
2023/03/12 06:30:08;;;;;;;1.08;0.55;;;18.80;52.80;;;;;;5052717;28;20053;-63
2023/03/12 06:32:35;;;;;;;0.85;0.55;;;18.90;52.80;;;;;;5034812;28;20053;-63
2023/03/12 06:35:03;;;;;;;0.75;0.28;;;19.00;52.70;;;;;;5052732;28;20048;-63
2023/03/12 06:37:30;;;;;;;0.90;0.80;;;19.00;52.90;;;;;;5052671;28;20064;-63
2023/03/12 06:39:57;;;;;;;0.63;0.17;;;19.00;52.70;;;;;;5052456;28;20053;-63
2023/03/12 06:42:26;;;;;;;1.00;0.52;;;19.00;52.70;;;;;;5052242;28;20044;-63
2023/03/12 06:44:53;;;;;;;0.98;0.55;;;19.00;52.80;;;;;;5051938;28;20587;-63
2023/03/12 06:47:20;;;;;;;1.45;0.65;;;18.90;52.80;;;;;;5034325;28;20106;-63
2023/03/12 06:49:47;;;;;;;0.85;0.20;;;18.90;52.80;;;;;;5052038;28;20053;-63
2023/03/12 06:52:14;;;;;;;1.00;0.70;;;18.90;52.90;;;;;;5052115;28;20063;-63
2023/03/12 06:54:41;;;;;;;0.88;0.65;;;18.80;52.90;;;;;;5052336;28;20053;-63
2023/03/12 06:57:08;;;;;;;0.75;0.40;;;18.80;53.10;;;;;;5034267;28;20052;-63
2023/03/12 06:59:37;;;;;;;0.70;0.22;;;18.70;53.10;;;;;;5052033;28;20099;-63
2023/03/12 07:02:04;;;;;;;1.10;0.40;;;18.70;53.20;;;;;;5034084;28;20053;-63
2023/03/12 07:04:31;;;;;;;0.80;0.50;;;18.70;53.30;;;;;;5051902;28;20065;-63
2023/03/12 07:06:58;;;;;;;1.20;0.55;;;18.60;53.30;;;;;;5052246;28;20045;-63
2023/03/12 07:09:24;;;;;;;0.80;0.40;;;18.60;53.30;;;;;;5051716;28;20041;-63
2023/03/12 07:11:51;;;;;;;0.40;0.03;;;18.50;53.40;;;;;;5033856;28;20060;-63
2023/03/12 07:14:20;;;;;;;0.43;0.13;;;18.40;53.40;;;;;;5034026;28;20070;-63
2023/03/12 07:16:48;;;;;;;0.40;0.20;;;18.50;53.50;;;;;;5033166;28;20059;-63
2023/03/12 07:19:15;;;;;;;0.90;0.13;;;18.40;53.50;;;;;;5051507;28;20064;-63
2023/03/12 07:21:42;;;;;;;0.90;0.40;;;18.30;53.50;;;;;;5051315;28;20521;-63
2023/03/12 07:24:09;;;;;;;0.70;0.32;;;18.30;53.60;;;;;;5051979;28;20044;-63
2023/03/12 07:26:36;;;;;;;0.70;0.22;;;18.30;54.00;;;;;;5051771;28;20060;-63
2023/03/12 07:29:03;;;;;;;0.52;0.13;;;18.20;53.70;;;;;;5051531;28;20045;-63
2023/03/12 07:31:30;;;;;;;0.73;0.32;;;18.20;53.80;;;;;;5051362;28;20308;-63
2023/03/12 07:33:59;;;;;;;0.85;0.35;;;18.20;53.80;;;;;;5033728;28;20060;-63
2023/03/12 07:36:26;;;;;;;1.17;0.60;;;18.20;54.50;;;;;;5051349;28;20059;-63
2023/03/12 07:38:53;;;;;;;0.85;0.50;;;18.20;53.90;;;;;;5051391;28;20067;-63
2023/03/12 07:41:20;;;;;;;0.55;0.15;;;18.20;54.00;;;;;;5051352;28;20049;-63
2023/03/12 07:43:47;;;;;;;0.80;0.32;;;18.10;53.90;;;;;;5051147;28;20072;-63
2023/03/12 07:46:14;;;;;;;0.93;0.40;;;18.10;53.80;;;;;;5051167;28;20530;-63
2023/03/12 07:48:41;;;;;;;1.15;0.30;;;18.20;53.90;;;;;;5051162;28;20061;-63
2023/03/12 07:51:09;;;;;;;1.20;0.30;;;18.20;53.80;;;;;;5051321;28;20040;-63
2023/03/12 07:53:36;;;;;;;0.55;0.13;;;18.20;53.80;;;;;;5051120;28;20061;-63
2023/03/12 07:56:03;;;;;;;0.85;0.30;;;18.30;53.80;;;;;;5032986;28;20052;-63
2023/03/12 07:58:30;;;;;;;0.80;0.50;;;18.30;53.70;;;;;;5050723;28;20053;-63
2023/03/12 08:00:57;;;;;;;0.90;0.40;;;18.40;53.70;;;;;;5050937;28;20049;-63
2023/03/12 08:03:24;;;;;;;0.43;0.13;;;18.40;53.50;;;;;;5033096;28;20060;-63
2023/03/12 08:05:58;;;;;;;1.15;0.55;;;18.50;53.40;;;;;;5033093;28;20056;-63
2023/03/12 08:08:27;;;;;;;0.50;0.15;;;18.50;53.40;;;;;;5033022;28;20493;-63
2023/03/12 08:10:54;;;;;;;1.58;0.60;;;18.50;53.30;;;;;;5050632;28;20056;-63
2023/03/12 08:13:23;;;;;;;0.73;0.30;;;18.50;53.30;;;;;;5050898;28;20052;-63
2023/03/12 08:15:50;;;;;;;0.77;0.13;;;18.50;53.40;;;;;;5050334;28;20052;-63
2023/03/12 08:18:17;;;;;;;1.42;0.60;;;18.60;53.30;;;;;;5050720;28;20560;-63
2023/03/12 08:20:44;;;;;;;1.17;0.43;;;18.60;53.20;;;;;;5050789;28;20061;-63
2023/03/12 08:23:11;;;;;;;0.80;0.52;;;18.60;53.10;;;;;;5050705;28;20053;-63
2023/03/12 08:25:40;;;;;;;0.52;0.13;;;18.70;53.20;;;;;;5050674;28;20049;-63
2023/03/12 08:28:06;;;;;;;0.60;0.32;;;18.70;53.10;;;;;;5050283;28;20063;-63
2023/03/12 08:30:33;;;;;;;0.70;0.22;;;18.80;53.10;;;;;;5032273;28;20053;-63
2023/03/12 08:33:00;;;;;;;1.08;0.63;;;18.90;53.00;;;;;;5032774;28;20057;-63
2023/03/12 08:35:27;;;;;;;1.23;0.20;;;19.00;52.80;;;;;;5050730;28;20044;-63
2023/03/12 08:37:55;;;;;;;0.70;0.40;;;19.00;52.80;;;;;;5032353;28;20048;-63
2023/03/12 08:40:23;;;;;;;1.02;0.50;;;19.00;52.70;;;;;;5049958;28;20092;-63
2023/03/12 08:42:51;;;;;;;1.00;0.40;;;19.00;52.70;;;;;;5032418;28;20052;-63
2023/03/12 08:45:18;;;;;;;0.57;0.20;;;19.10;52.80;;;;;;5032199;28;20049;-63
2023/03/12 08:47:45;;;;;;;1.48;0.70;;;19.00;52.70;;;;;;5050405;28;20057;-63
2023/03/12 08:50:15;;;;;;;1.10;0.50;;;19.00;52.80;;;;;;5049923;28;20485;-63
2023/03/12 08:52:42;;;;;;;1.13;0.22;;;18.90;52.80;;;;;;5050134;28;20323;-63
2023/03/12 08:55:10;;;;;;;0.70;0.20;;;18.90;52.80;;;;;;5032288;28;20056;-63
2023/03/12 08:57:37;;;;;;;0.80;0.30;;;18.90;52.90;;;;;;5032045;28;20056;-63
2023/03/12 09:00:11;;;;;;;0.70;0.20;;;18.90;53.00;;;;;;5031997;28;20056;-63
2023/03/12 09:02:38;;;;;;;0.77;0.13;;;18.80;53.00;;;;;;5049878;28;20458;-63
2023/03/12 09:05:05;;;;;;;0.90;0.15;;;18.70;53.10;;;;;;5049992;28;20057;-63
2023/03/12 09:07:33;;;;;;;0.77;0.38;;;18.70;53.10;;;;;;5049867;28;20490;-63
2023/03/12 09:10:00;;;;;;;0.90;0.40;;;18.70;53.30;;;;;;5032327;28;20107;-63
2023/03/12 09:12:27;;;;;;;0.80;0.28;;;18.60;53.20;;;;;;5031852;28;20041;-63
2023/03/12 09:14:54;;;;;;;1.10;0.13;;;18.60;53.30;;;;;;5049823;28;20432;-64
2023/03/12 09:17:22;;;;;;;1.08;0.35;;;18.60;53.40;;;;;;5032087;28;20421;-63
2023/03/12 09:19:49;;;;;;;0.73;0.13;;;18.50;53.40;;;;;;5032026;28;20053;-63
2023/03/12 09:22:16;;;;;;;1.00;0.65;;;18.50;53.50;;;;;;5049442;28;20061;-63
2023/03/12 09:24:43;;;;;;;0.95;0.13;;;18.40;53.50;;;;;;5049936;28;20045;-63
2023/03/12 09:27:10;;;;;;;1.20;0.20;;;18.40;53.50;;;;;;5051982;28;20087;-63
2023/03/12 09:29:37;;;;;;;0.90;0.60;;;18.30;53.50;;;;;;5069640;28;20485;-63
2023/03/12 09:32:05;;;;;;;0.47;0.13;;;18.30;53.60;;;;;;5051768;28;20055;-63
2023/03/12 09:34:33;;;;;;;0.80;0.30;;;18.30;53.70;;;;;;5051600;28;20053;-63
2023/03/12 09:37:00;;;;;;;1.00;0.35;;;18.20;53.70;;;;;;5069667;28;20046;-63
2023/03/12 09:39:27;;;;;;;1.13;0.43;;;18.20;53.70;;;;;;5051449;28;20409;-63
2023/03/12 09:41:54;;;;;;;0.98;0.45;;;18.20;53.80;;;;;;5073019;28;20119;-63
2023/03/12 09:44:31;;;;;;;1.02;0.40;;;18.20;53.90;;;;;;5041109;28;20060;-63
2023/03/12 09:47:01;;;;;;;0.90;0.40;;;18.20;53.90;;;;;;5035471;28;20081;-63
2023/03/12 09:49:35;;;;;;;0.52;0.15;;;18.20;53.90;;;;;;5053516;28;20053;-63
2023/03/12 09:52:18;;;;;;;0.90;0.30;;;18.20;53.90;;;;;;5035467;28;20574;-63
2023/03/12 09:54:54;;;;;;;1.50;0.25;;;18.20;53.90;;;;;;5035386;28;20053;-63
2023/03/12 09:57:24;;;;;;;0.90;0.32;;;18.30;53.90;;;;;;5053241;28;20061;-63
2023/03/12 09:59:52;;;;;;;0.60;0.22;;;18.30;53.80;;;;;;5053107;28;20057;-63
2023/03/12 10:02:39;;;;;;;1.02;0.43;;;18.30;53.70;;;;;;5053393;28;20056;-63
2023/03/12 10:05:13;;;;;;;1.10;0.25;;;18.40;53.70;;;;;;5035302;28;20060;-63
2023/03/12 10:07:46;;;;;;;0.93;0.35;;;18.40;53.60;;;;;;5053333;28;20048;-63
2023/03/12 10:10:24;;;;;;;0.68;0.22;;;18.50;53.50;;;;;;5052943;28;20056;-63
2023/03/12 10:13:08;;;;;;;0.90;0.20;;;18.60;53.40;;;;;;5053035;28;20063;-63
2023/03/12 10:15:42;;;;;;;0.90;0.25;;;18.60;53.30;;;;;;5035001;28;20053;-63
2023/03/12 10:18:18;;;;;;;0.98;0.22;;;18.70;53.30;;;;;;5052718;28;20056;-63
2023/03/12 10:21:08;;;;;;;0.45;0.13;;;18.70;53.20;;;;;;5035075;28;20057;-63
2023/03/12 10:23:49;;;;;;;0.73;0.13;;;18.70;53.20;;;;;;5052743;28;20080;-63
2023/03/12 10:26:22;;;;;;;1.25;0.20;;;18.70;53.20;;;;;;5052911;28;20386;-63
2023/03/12 10:28:51;;;;;;;1.00;0.15;;;18.70;53.20;;;;;;5034846;28;20053;-63
2023/03/12 10:31:21;;;;;;;;;;;18.70;53.20;;;;;;5035331;28;20064;-63
2023/03/12 10:33:53;;;;;;;1.30;0.45;;;18.80;53.10;;;;;;5034882;28;19925;-63
2023/03/12 10:36:25;;;;;;;0.80;0.22;;;18.90;53.00;;;;;;5052584;28;20135;-63
2023/03/12 10:38:52;;;;;;;0.95;0.22;;;18.90;52.90;;;;;;5052622;28;20049;-63
2023/03/12 10:41:21;;;;;;;1.35;1.05;;;18.90;52.90;;;;;;5034409;28;20041;-63
2023/03/12 10:43:49;;;;;;;;;;;19.00;52.80;;;;;;5034724;28;20437;-63
2023/03/12 10:46:51;;;;;;;1.17;0.10;;;19.00;52.90;;;;;;5052378;28;20340;-63
2023/03/12 10:49:28;;;;;;;0.45;0.13;;;18.90;52.80;;;;;;5045449;28;20417;-63
2023/03/12 10:51:58;;;;;;;1.10;0.20;;;18.90;52.80;;;;;;5033524;28;20494;-63
2023/03/12 10:54:30;;;;;;;1.35;0.50;;;18.90;52.90;;;;;;5034491;28;20049;-63
2023/03/12 10:56:57;;;;;;;1.05;0.30;;;18.90;53.00;;;;;;5051905;28;20417;-63
2023/03/12 10:59:28;;;;;;;0.75;0.22;;;18.80;53.00;;;;;;5034206;28;20061;-63
2023/03/12 11:01:56;;;;;;;1.08;0.50;;;18.80;53.10;;;;;;5034016;28;20068;-63
2023/03/12 11:04:25;;;;;;;1.63;1.05;;;18.70;53.20;;;;;;5034012;28;20059;-63
2023/03/12 11:07:21;;;;;;;0.40;0.13;;;18.70;53.20;;;;;;5052002;28;20049;-63
2023/03/12 11:10:23;;;;;;;0.60;0.20;;;18.70;53.20;;;;;;5033958;28;20064;-63
2023/03/12 11:13:02;;;;;;;0.73;0.20;;;18.60;53.30;;;;;;5045340;28;20060;-63
2023/03/12 11:15:37;;;;;;;1.00;0.40;;;18.60;53.40;;;;;;5051696;28;20049;-63
2023/03/12 11:18:25;;;;;;;0.75;0.30;;;18.50;54.10;;;;;;5034181;28;20063;-63
2023/03/12 11:20:55;;;;;;;1.00;0.50;;;18.50;53.40;;;;;;5033644;28;20513;-63
2023/03/12 11:23:26;;;;;;;0.80;0.30;;;18.40;53.50;;;;;;5033403;28;20417;-63
2023/03/12 11:25:58;;;;;;;1.00;0.55;;;18.40;53.50;;;;;;5051608;28;20053;-63
2023/03/12 11:28:29;;;;;;;0.80;0.40;;;18.40;53.60;;;;;;5033735;28;20052;-63
2023/03/12 11:30:58;;;;;;;0.80;0.15;;;18.30;53.50;;;;;;5051715;28;20067;-63
2023/03/12 11:33:25;;;;;;;1.17;0.60;;;18.30;53.60;;;;;;5033631;28;20119;-63
2023/03/12 11:36:08;;;;;;;0.90;0.38;;;18.30;53.60;;;;;;5051485;28;20064;-63
2023/03/12 11:38:40;;;;;;;0.93;0.32;;;18.20;53.70;;;;;;5033281;28;20049;-63
2023/03/12 11:41:28;;;;;;;1.00;0.40;;;18.20;53.70;;;;;;5051150;28;20049;-63
2023/03/12 11:44:13;;;;;;;0.90;0.43;;;18.10;53.70;;;;;;5033213;28;20053;-63
2023/03/12 11:46:51;;;;;;;0.90;0.50;;;18.20;53.80;;;;;;5032989;28;20056;-63
2023/03/12 11:49:30;;;;;;;1.05;0.40;;;18.20;53.80;;;;;;5051685;28;20049;-63
2023/03/12 11:52:05;;;;;;;1.45;0.30;;;18.20;53.80;;;;;;5051175;28;20071;-63
2023/03/12 11:54:59;;;;;;;1.20;0.73;;;18.20;53.70;;;;;;5033043;28;20049;-63
2023/03/12 11:57:38;;;;;;;1.00;0.50;;;18.20;53.70;;;;;;5032995;28;20044;-63
2023/03/12 12:00:14;;;;;;;1.40;0.25;;;18.30;53.60;;;;;;5033426;28;20053;-63
2023/03/12 12:03:21;;;;;;;0.95;0.40;;;18.30;53.40;;;;;;5032774;28;20055;-63
2023/03/12 12:05:59;;;;;;;1.30;0.32;;;18.40;53.40;;;;;;5050807;28;20053;-63
2023/03/12 12:08:53;;;;;;;1.48;1.27;;;18.50;53.30;;;;;;5032663;28;20528;-63
2023/03/12 12:11:32;;;;;;;0.77;0.28;;;18.50;53.20;;;;;;5051048;28;20041;-63
2023/03/12 12:14:17;;;;;;;0.90;0.40;;;18.60;53.10;;;;;;5050899;28;20056;-63
2023/03/12 12:16:58;;;;;;;1.02;0.38;;;18.70;53.00;;;;;;5032952;28;20060;-63
2023/03/12 12:19:47;;;;;;;1.30;0.57;;;18.70;52.80;;;;;;5050670;28;20049;-63
2023/03/12 12:22:29;;;;;;;1.17;0.50;;;18.90;52.80;;;;;;5050254;28;20065;-63
2023/03/12 12:25:31;;;;;;;1.30;0.60;;;18.90;52.60;;;;;;5050753;28;20076;-63
2023/03/12 12:28:13;;;;;;;0.80;0.20;;;18.90;52.50;;;;;;5050582;28;20421;-63
2023/03/12 12:30:54;;;;;;;1.40;0.50;;;19.00;52.50;;;;;;5050516;28;20045;-63
2023/03/12 12:33:32;;;;;;;0.80;0.17;;;19.00;52.50;;;;;;5032653;28;20053;-63
2023/03/12 12:36:00;;;;;;;1.08;0.40;;;18.90;52.50;;;;;;5050291;28;20052;-63
2023/03/12 12:38:32;;;;;;;1.00;0.60;;;18.90;52.60;;;;;;5050420;28;20049;-63
2023/03/12 12:41:04;;;;;;;0.90;0.30;;;18.90;52.70;;;;;;5032670;28;20060;-63
2023/03/12 12:43:38;;;;;;;1.10;0.40;;;18.90;52.70;;;;;;5050264;28;20053;-63
2023/03/12 12:46:09;;;;;;;1.17;0.55;;;18.80;52.70;;;;;;5050082;28;20048;-63
2023/03/12 12:48:40;;;;;;;0.88;0.50;;;18.80;52.90;;;;;;5050436;28;20053;-63
2023/03/12 12:51:08;;;;;;;0.95;0.60;;;18.70;52.90;;;;;;5050415;28;20041;-63
2023/03/12 12:53:41;;;;;;;1.02;0.70;;;18.70;53.10;;;;;;5032070;28;20537;-63
2023/03/12 12:56:15;;;;;;;0.98;0.25;;;18.70;53.10;;;;;;5050056;28;20060;-63
2023/03/12 12:59:07;;;;;;;1.10;0.38;;;18.60;53.10;;;;;;5032026;28;20052;-63
2023/03/12 13:01:36;;;;;;;0.98;0.52;;;18.60;53.10;;;;;;5031975;28;20045;-63
2023/03/12 13:04:09;;;;;;;0.90;0.22;;;18.50;53.20;;;;;;5049926;28;20606;-63